Santander, Cantabria

latitud = 43° 29' 28''N | longitud = 003° 48' 02''W
52 metros sobre el nivel del mar | datos mensuales

Fecha, hora, temperatura, viento dirección y velocidad, humedad y presión.

  • 14-10-2018 19:00:00 | 14.70°C | Sudoeste |13.00 km/h | 82.00% | 1002.90 hPa
  • 14-10-2018 18:00:00 | 14.70°C | Sudoeste |11.00 km/h | 84.00% | 1002.70 hPa
  • 14-10-2018 17:00:00 | 14.20°C | Sudoeste |15.00 km/h | 89.00% | 1002.20 hPa
  • 14-10-2018 16:00:00 | 13.40°C | Oeste |18.00 km/h | 92.00% | 1003.00 hPa
  • 14-10-2018 15:00:00 | 13.00°C | Oeste |26.00 km/h | 94.00% | 1002.80 hPa
  • 14-10-2018 14:00:00 | 12.60°C | Oeste |38.00 km/h | 93.00% | 1002.40 hPa
  • 14-10-2018 13:00:00 | 13.40°C | Oeste |30.00 km/h | 94.00% | 1002.00 hPa
  • 14-10-2018 12:00:00 | 12.70°C | Oeste |36.00 km/h | 97.00% | 1001.30 hPa
  • 14-10-2018 11:00:00 | 12.60°C | Oeste |49.00 km/h | 97.00% | 999.70 hPa
  • 14-10-2018 10:00:00 | 12.80°C | Oeste |54.00 km/h | 97.00% | 999.00 hPa
  • 14-10-2018 09:00:00 | 13.80°C | Oeste |40.00 km/h | 97.00% | 997.80 hPa
  • 14-10-2018 08:00:00 | 14.30°C | Oeste |27.00 km/h | 96.00% | 996.40 hPa
  • 14-10-2018 07:00:00 | 14.40°C | Oeste |22.00 km/h | 96.00% | 996.00 hPa
  • 14-10-2018 06:00:00 | 14.50°C | Oeste |22.00 km/h | 95.00% | 995.60 hPa
  • 14-10-2018 05:00:00 | 14.60°C | Oeste |20.00 km/h | 95.00% | 996.70 hPa
  • 14-10-2018 04:00:00 | 15.30°C | Oeste |30.00 km/h | 94.00% | 997.90 hPa
  • 14-10-2018 03:00:00 | 16.40°C | Oeste |36.00 km/h | 91.00% | 997.10 hPa
  • 14-10-2018 02:00:00 | 17.20°C | Oeste |35.00 km/h | 88.00% | 997.80 hPa
  • 14-10-2018 01:00:00 | 17.90°C | Oeste |39.00 km/h | 78.00% | 997.90 hPa
  • 14-10-2018 00:00:00 | 23.60°C | Sur |13.00 km/h | 51.00% | 997.60 hPa
  • 13-10-2018 23:00:00 | 24.50°C | Sur |17.00 km/h | 48.00% | 998.40 hPa
  • 13-10-2018 22:00:00 | 24.00°C | Sudeste |14.00 km/h | 50.00% | 999.20 hPa
  • 13-10-2018 21:00:00 | 25.00°C | Sur |16.00 km/h | 47.00% | 1000.60 hPa
  • 13-10-2018 20:00:00 | 25.60°C | Sur |14.00 km/h | 46.00% | 1001.10 hPa